Latest Coastal Weather Observations for Cape Borda

IDT60701

Issued at 11:41 am EDT Friday 19 December 2014 (issued every 10 minutes, with the page automatically refreshed every 10 minutes)

About coastal observations | Map of coastal stations | Coastal observations for TAS | Marine services | Other Formats
Station Details ID: 022823 Name: CAPE BORDA Lat: -35.75 Lon: 136.60 Height: 158.0 m
Data from the previous 72 hours. | See also: Recent months at Cape Borda
Date/Time
EDT
Temp

°C
Wind Pressure Rain
since 9am
mm
Weather Cloud Vis
km
Sea
Height
m
Swell
Dir
 
Speed
knots
Gust
knots
hPa Trend Height
m
Period
s
Dir
19/11:30am 17.7 W 11 15 1021.9 - 0.0 - - - - - - -
19/11:00am 17.2 W 10 13 1021.7 - 0.0 - - - - - - -
19/10:30am 16.5 SW 9 13 1021.3 - 0.0 - - - - - - -
19/10:00am 15.4 WSW 8 9 1021.2 - 0.0 - - - - - - -
19/09:30am 15.6 S 5 8 1020.4 R 0.0 Fine Partly cloudy 15 <0.5 - - SW
19/09:00am 14.6 S 6 8 1020.2 - 0.0 - - - - - - -
19/08:30am 13.3 S 5 6 1019.8 - 0.0 - - - - - - -
19/08:00am 12.6 S 5 6 1019.5 - 0.0 - - - - - - -
19/07:30am 11.8 S 6 7 1019.1 - 0.0 - - - - - - -
19/07:00am 10.4 S 8 9 1018.6 - 0.0 - - - - - - -
19/06:30am 10.1 S 8 9 1018.4 R 0.0 Fine Mostly clear 15 <0.5 - - SW
19/06:00am 10.4 S 7 8 1018.4 - 0.0 - - - - - - -
19/05:30am 11.1 S 7 8 1018.4 - 0.0 - - - - - - -
19/05:00am 10.3 S 7 8 1018.4 - 0.0 - - - - - - -
19/04:30am 10.3 S 8 8 1018.3 - 0.0 - - - - - - -
19/04:00am 10.3 S 8 8 1018.4 - 0.0 - - - - - - -
19/03:30am 10.9 S 8 9 1018.1 - 0.0 - - - - - - -
19/03:00am 11.1 SSW 7 9 1018.3 - 0.0 - - - - - - -
19/02:30am 11.0 S 8 9 1018.4 - 0.0 - - - - - - -
19/02:00am 11.3 S 7 8 1018.6 - 0.0 - - - - - - -
19/01:30am 12.0 SSW 8 9 1018.5 - 0.0 - - - - - - -
19/01:00am 12.4 SSW 8 11 1018.6 - 0.0 - - - - - - -
19/12:30am 12.7 S 9 12 1018.3 - 0.0 - - - - - - -
19/12:00am 13.4 SSW 8 11 1018.3 - 0.0 - - - - - - -
 
Date/Time
EDT
Temp

°C
Wind Pressure Rain
since 9am
mm
Weather Cloud Vis
km
Sea
Height
m
Swell
Dir
 
Speed
knots
Gust
knots
hPa Trend Height
m
Period
s
Dir
18/11:30pm 13.3 SSW 7 10 1018.3 - 0.0 - - - - - - -
18/11:00pm 13.7 S 8 11 1018.1 - 0.0 - - - - - - -
18/10:30pm 13.4 SSW 9 13 1017.9 - 0.0 - - - - - - -
18/10:00pm 14.1 SSW 12 15 1017.6 - 0.0 - - - - - - -
18/09:30pm 14.2 SW 11 15 1017.1 - 0.0 - - - - - - -
18/09:00pm 14.5 SW 11 15 1017.0 - 0.0 - - - - - - -
18/08:30pm 15.1 SW 11 15 1016.8 - 0.0 - - - - - - -
18/08:00pm 15.9 SSW 14 19 1016.5 - 0.0 - - - - - - -
18/07:30pm 16.6 SW 15 22 1016.0 - 0.0 - - - - - - -
18/07:00pm 16.4 SW 15 20 1015.5 - 0.0 - - - - - - -
18/06:30pm 17.1 SW 16 22 1014.9 - 0.0 - - - - - - -
18/06:00pm 18.1 SSW 17 23 1014.9 - 0.0 - - - - - - -
18/05:30pm 18.9 SW 17 24 1014.8 - 0.0 - - - - - - -
18/05:00pm 18.4 SW 17 24 1014.5 - 0.0 - - - - - - -
18/04:30pm 18.7 SW 19 25 1014.3 - 0.0 - - - - - - -
18/04:00pm 18.5 SW 19 27 1013.9 - 0.0 - - - - - - -
18/03:30pm 18.1 SW 17 24 1013.4 R 0.0 Fine Mostly cloudy 10 2 5.8 7 SW
18/03:00pm 18.7 SW 19 24 1013.5 - 0.0 - - - - - - -
18/02:30pm 18.3 WSW 18 23 1013.4 - 0.0 - - - - - - -
18/02:00pm 18.8 SW 17 25 1013.3 - 0.0 - - - - - - -
18/01:30pm 18.6 SW 19 26 1013.1 - 0.0 - - - - - - -
18/01:00pm 17.8 SW 16 23 1013.1 - 0.0 - - - - - - -
18/12:48pm 17.3 WSW 16 27 1012.8 - 0.0 - - - - - - -
18/12:30pm 18.7 WSW 15 20 1012.4 - 0.0 - - - - - - -
18/12:00pm 18.7 SW 18 24 1012.4 - 0.0 - - - - - - -
18/11:30am 18.4 SW 19 26 1012.1 - 0.0 - - - - - - -
18/11:00am 18.2 WSW 18 24 1011.7 - 0.0 - - - - - - -
18/10:30am 17.4 SW 17 23 1011.5 - 0.0 - - - - - - -
18/10:00am 17.0 SW 15 21 1011.3 - 0.0 - - - - - - -
18/09:30am 15.6 SW 18 25 1010.4 R 0.0 Distant precip. Partly cloudy 10 2 5.3 7 SW
18/09:14am 16.0 SW 21 27 1010.4 - 0.0 - - - - - - -
18/09:00am 16.4 W 16 25 1010.2 - 0.0 - - - - - - -
18/08:30am 16.1 W 18 26 1009.9 - 0.0 - - - - - - -
18/08:00am 16.0 W 17 23 1009.5 - 0.0 - - - - - - -
18/07:30am 15.3 W 15 26 1009.0 - 0.0 - - - - - - -
18/07:28am 15.3 W 15 26 1009.0 - 0.0 - - - - - - -
18/07:00am 14.7 W 17 23 1008.8 - 0.0 - - - - - - -
18/06:30am 14.4 W 17 25 1008.3 R 0.0 Distant precip. Mostly cloudy 12 2 5.1 7 SW
18/06:23am 14.2 W 15 25 1008.6 - 0.0 - - - - - - -
18/06:00am 14.8 W 13 18 1008.4 - 0.0 - - - - - - -
18/05:30am 14.8 W 15 22 1008.1 - 0.0 - - - - - - -
18/05:00am 15.4 WNW 16 22 1007.7 - 0.0 - - - - - - -
18/04:30am 15.1 W 15 21 1007.6 - 0.0 - - - - - - -
18/04:00am 15.0 W 14 19 1007.5 - 0.0 - - - - - - -
18/03:30am 14.9 W 14 19 1007.3 - 0.0 - - - - - - -
18/03:00am 14.9 WNW 13 18 1008.0 - 0.0 - - - - - - -
18/02:30am 15.0 WNW 13 19 1008.1 - 0.0 - - - - - - -
18/02:00am 15.0 WNW 13 17 1008.3 - 0.0 - - - - - - -
18/01:30am 14.8 WNW 10 14 1008.2 - 0.0 - - - - - - -
18/01:00am 15.1 WNW 10 14 1008.5 - 0.0 - - - - - - -
18/12:30am 15.0 WNW 9 12 1008.2 - 0.0 - - - - - - -
18/12:00am 15.0 WNW 9 14 1008.6 - 0.0 - - - - - - -
 
Date/Time
EDT
Temp

°C
Wind Pressure Rain
since 9am
mm
Weather Cloud Vis
km
Sea
Height
m
Swell
Dir
 
Speed
knots
Gust
knots
hPa Trend Height
m
Period
s
Dir
17/11:30pm 14.8 WNW 10 13 1008.9 - 0.0 - - - - - - -
17/11:00pm 14.3 WNW 7 9 1008.9 - 0.0 - - - - - - -
17/10:30pm 14.4 WNW 8 11 1008.7 - 0.0 - - - - - - -
17/10:00pm 15.2 W 10 14 1008.8 - 0.0 - - - - - - -
17/09:30pm 14.7 W 9 13 1008.5 - 0.0 - - - - - - -
17/09:00pm 14.8 W 9 13 1008.7 - 0.0 - - - - - - -
17/08:30pm 16.0 W 7 10 1008.4 - 0.0 - - - - - - -
17/08:00pm 16.4 W 8 11 1008.4 - 0.0 - - - - - - -
17/07:30pm 15.7 W 11 15 1008.4 - 0.0 - - - - - - -
17/07:00pm 16.1 WSW 10 14 1008.3 - 0.0 - - - - - - -
17/06:30pm 17.7 WSW 11 15 1008.0 - 0.0 - - - - - - -
17/06:00pm 18.3 W 10 14 1008.5 - 0.0 - - - - - - -
17/05:30pm 18.2 WNW 12 15 1008.7 - 0.0 - - - - - - -
17/05:00pm 18.8 WNW 12 16 1008.9 - 0.0 - - - - - - -
17/04:30pm 18.3 W 12 17 1009.2 - 0.0 - - - - - - -
17/04:00pm 18.7 W 11 15 1009.2 - 0.0 - - - - - - -
17/03:30pm 18.1 W 12 16 1009.2 F 0.0 Fine Mostly clear 20 <0.5 4.7 8 SW
17/03:00pm 18.4 WNW 11 15 1009.3 - 0.0 - - - - - - -
17/02:30pm 18.4 NW 10 14 1009.6 - 0.0 - - - - - - -
17/02:00pm 18.2 NW 11 14 1010.0 - 0.0 - - - - - - -
17/01:30pm 17.4 NW 10 14 1010.4 - 0.0 - - - - - - -
17/01:00pm 17.8 NW 11 14 1010.6 - 0.0 - - - - - - -
17/12:30pm 17.5 NW 10 13 1010.6 - 0.0 - - - - - - -
17/12:00pm 17.6 NW 9 13 1010.9 - 0.0 - - - - - - -
17/11:30am 16.7 NW 9 13 1011.0 - 0.0 - - - - - - -
17/11:00am 16.3 WNW 8 11 1011.0 - 0.0 - - - - - - -
17/10:30am 16.4 WNW 7 10 1011.1 - 0.0 - - - - - - -
17/10:00am 15.7 WNW 7 9 1011.1 - 0.0 - - - - - - -
17/09:30am 16.0 WNW 7 10 1011.0 F 0.0 Fine Partly cloudy 18 <0.5 5.4 8 SW
17/09:00am 15.1 NW 7 9 1011.3 - 0.0 - - - - - - -
17/08:30am 14.5 WNW 6 9 1011.1 - 0.0 - - - - - - -
17/08:00am 14.4 W 6 8 1010.9 - 0.0 - - - - - - -
17/07:30am 12.7 W 5 7 1010.7 - 0.0 - - - - - - -
17/07:00am 11.1 WSW 5 6 1010.5 - 0.0 - - - - - - -
17/06:30am 10.9 WSW 5 6 1010.0 R 0.0 Fine Mostly clear 15 <0.5 5.1 8 SW
17/06:00am 11.2 WSW 6 8 1009.9 - 0.0 - - - - - - -
17/05:30am 10.9 SW 6 8 1009.5 - 0.0 - - - - - - -
17/05:00am 11.6 SSW 5 7 1009.3 - 0.0 - - - - - - -
17/04:30am 11.1 SW 6 7 1009.2 - 0.0 - - - - - - -
17/04:00am 11.7 S 5 6 1009.2 - 0.0 - - - - - - -
17/03:30am 11.0 S 6 6 1008.8 - 0.0 - - - - - - -
17/03:00am 10.6 S 6 7 1009.3 - 0.0 - - - - - - -
17/02:30am 11.3 S 6 7 1009.4 - 0.0 - - - - - - -
17/02:00am 11.2 S 7 8 1009.5 - 0.0 - - - - - - -
17/01:30am 12.0 S 8 10 1009.4 - 0.0 - - - - - - -
17/01:00am 12.0 S 7 9 1009.6 - 0.0 - - - - - - -
17/12:30am 12.3 S 7 10 1009.7 - 0.0 - - - - - - -
17/12:00am 12.8 SW 8 11 1010.2 - 0.0 - - - - - - -
 
Date/Time
EDT
Temp

°C
Wind Pressure Rain
since 9am
mm
Weather Cloud Vis
km
Sea
Height
m
Swell
Dir
 
Speed
knots
Gust
knots
hPa Trend Height
m
Period
s
Dir
16/11:30pm 13.1 SW 9 14 1010.2 - 0.0 - - - - - - -
16/11:00pm 13.2 SW 10 15 1010.4 - 0.0 - - - - - - -
16/10:30pm 13.6 SW 11 16 1010.1 - 0.0 - - - - - - -
16/10:00pm 13.5 SW 12 16 1009.9 - 0.0 - - - - - - -
16/09:30pm 13.6 SW 13 18 1009.2 - 0.0 - - - - - - -
16/09:00pm 13.9 SW 14 21 1009.1 - 0.0 - - - - - - -
16/08:30pm 14.2 SW 13 19 1008.8 - 0.0 - - - - - - -
16/08:00pm 15.1 SW 15 20 1008.5 - 0.0 - - - - - - -
16/07:30pm 15.1 SW 17 24 1008.2 - 0.0 - - - - - - -
16/07:00pm 16.2 SW 19 26 1007.8 - 0.0 - - - - - - -
16/06:30pm 16.6 SW 18 25 1007.2 - 0.0 - - - - - - -
16/06:19pm 16.7 SW 18 33 1007.1 - 0.0 - - - - - - -
16/06:00pm 16.4 SW 19 28 1007.1 - 0.0 - - - - - - -
16/05:46pm 17.2 WSW 19 29 1007.0 - 0.0 - - - - - - -
16/05:30pm 16.8 WSW 15 22 1007.1 - 0.0 - - - - - - -
16/05:00pm 17.8 WSW 17 26 1006.8 - 0.0 - - - - - - -
16/04:43pm 15.8 SW 18 28 1006.8 - 0.0 - - - - - - -
16/04:30pm 17.3 WSW 17 25 1006.6 - 0.0 - - - - - - -
16/04:00pm 18.7 SW 17 26 1006.2 - 0.0 - - - - - - -
16/03:45pm 17.2 SW 19 29 1006.0 - 0.0 - - - - - - -
16/03:30pm 19.1 WSW 18 27 1005.7 R 0.0 Fine Partly cloudy 15 3 6.5 7 SW
16/03:00pm 18.6 WSW 18 28 1005.5 - 0.0 - - - - - - -
16/02:55pm 17.9 WSW 19 29 1005.5 - 0.0 - - - - - - -
16/02:30pm 18.1 WSW 20 27 1005.2 - 0.0 - - - - - - -
16/02:00pm 17.5 WSW 23 33 1004.9 - 0.0 - - - - - - -
16/01:43pm 17.8 WSW 21 31 1004.7 - 0.0 - - - - - - -
16/01:30pm 18.8 WSW 20 29 1004.4 - 0.0 - - - - - - -
16/01:19pm 18.8 WSW 20 30 1004.4 - 0.0 - - - - - - -
16/01:00pm 18.4 WSW 23 31 1004.1 - 0.0 - - - - - - -
16/12:44pm 18.3 WSW 21 31 1003.7 - 0.0 - - - - - - -
16/12:30pm 18.3 WSW 21 28 1003.3 - 0.0 - - - - - - -
16/12:16pm 18.6 WSW 20 31 1003.3 - 0.0 - - - - - - -

Other Formats:

Comma delimited format used in spreadsheet applications
http://www.bom.gov.au/fwo/IDT60701/IDT60701.95805.axf

JavaScript Object Notation format (JSON) in row-major order
http://www.bom.gov.au/fwo/IDT60701/IDT60701.95805.json